Time;durP1;ratioP1;P1;durP2;ratioP2;P2;SDS_P1;SDS_P2;PMS_P1;PMS_P2;Temp;Humidity;BMP_temperature;BMP_pressure;BME280_temperature;BME280_humidity;BME280_pressure;Samples;Min_cycle;Max_cycle;Signal;HPM_P1;HPM_P2
2023/08/30 00:00:04;;;;;;;;;8.67;8.67;;;;;;;;5120329;27;45432;-71
2023/08/30 00:02:29;;;;;;;;;9.67;9.67;;;;;;;;5125524;27;45776;-72
2023/08/30 00:04:58;;;;;;;;;9.33;9.33;;;;;;;;5130234;27;45363;-72
2023/08/30 00:07:24;;;;;;;;;11.00;9.00;;;;;;;;5116691;27;45781;-71
2023/08/30 00:09:49;;;;;;;;;10.00;10.00;;;;;;;;5130673;27;45825;-71
2023/08/30 00:12:14;;;;;;;;;7.67;7.67;;;;;;;;5119574;27;46060;-71
2023/08/30 00:14:39;;;;;;;;;9.67;7.67;;;;;;;;5097049;27;45902;-71
2023/08/30 00:17:05;;;;;;;;;9.67;7.67;;;;;;;;5129146;27;45741;-71
2023/08/30 00:19:31;;;;;;;;;13.00;12.00;;;;;;;;5134161;27;45471;-71
2023/08/30 00:21:57;;;;;;;;;13.00;10.00;;;;;;;;5127864;27;46406;-71
2023/08/30 00:24:22;;;;;;;;;9.33;8.67;;;;;;;;5123371;27;45485;-73
2023/08/30 00:26:47;;;;;;;;;8.33;7.33;;;;;;;;5128365;27;45899;-71
2023/08/30 00:29:12;;;;;;;;;8.67;7.33;;;;;;;;5133063;27;45996;-72
2023/08/30 00:31:38;;;;;;;;;5.33;5.33;;;;;;;;5128206;27;45829;-72
2023/08/30 00:34:03;;;;;;;;;7.00;7.00;;;;;;;;5133752;27;45510;-70
2023/08/30 00:36:28;;;;;;;;;9.00;7.00;;;;;;;;5133285;27;45482;-71
2023/08/30 00:38:53;;;;;;;;;8.67;6.00;;;;;;;;5089727;27;46482;-71
2023/08/30 00:41:19;;;;;;;;;8.67;7.33;;;;;;;;5111559;27;46164;-71
2023/08/30 00:43:44;;;;;;;;;10.33;7.00;;;;;;;;5122916;27;45576;-71
2023/08/30 00:46:09;;;;;;;;;6.33;5.67;;;;;;;;5132194;27;45764;-71
2023/08/30 00:48:34;;;;;;;;;6.33;6.00;;;;;;;;5122988;27;46321;-71
2023/08/30 00:51:00;;;;;;;;;9.00;6.00;;;;;;;;5134152;27;46252;-71
2023/08/30 00:53:25;;;;;;;;;6.33;6.33;;;;;;;;5130141;27;45365;-71
2023/08/30 00:55:50;;;;;;;;;7.00;6.33;;;;;;;;5127745;27;45607;-71
2023/08/30 00:58:16;;;;;;;;;4.67;4.67;;;;;;;;5131987;27;45404;-71
2023/08/30 01:00:42;;;;;;;;;9.00;7.33;;;;;;;;5131838;27;46195;-70
2023/08/30 01:03:07;;;;;;;;;5.33;5.33;;;;;;;;5124839;27;45853;-72
2023/08/30 01:05:33;;;;;;;;;8.33;6.00;;;;;;;;5130277;27;45954;-72
2023/08/30 01:07:58;;;;;;;;;5.67;5.33;;;;;;;;5131633;27;45857;-70
2023/08/30 01:10:42;;;;;;;;;7.33;5.33;;;;;;;;5119464;27;46294;-70
2023/08/30 01:13:09;;;;;;;;;9.33;6.67;;;;;;;;5118718;27;45450;-72
2023/08/30 01:15:35;;;;;;;;;3.67;3.67;;;;;;;;5132903;27;45735;-69
2023/08/30 01:18:04;;;;;;;;;6.00;4.67;;;;;;;;5127358;27;45679;-70
2023/08/30 01:20:30;;;;;;;;;7.00;4.67;;;;;;;;5128683;27;45712;-70
2023/08/30 01:22:55;;;;;;;;;8.33;8.33;;;;;;;;5125750;27;45651;-71
2023/08/30 01:25:29;;;;;;;;;8.33;6.00;;;;;;;;5123032;27;46124;-71
2023/08/30 01:27:56;;;;;;;;;5.67;5.67;;;;;;;;5129711;27;45690;-72
2023/08/30 01:30:22;;;;;;;;;9.00;8.00;;;;;;;;5133246;27;46277;-71
2023/08/30 01:32:49;;;;;;;;;9.67;8.67;;;;;;;;5128812;27;46692;-71
2023/08/30 01:35:17;;;;;;;;;6.67;5.67;;;;;;;;5129360;27;45535;-71
2023/08/30 01:37:44;;;;;;;;;8.33;8.00;;;;;;;;5125754;27;45627;-70
2023/08/30 01:40:10;;;;;;;;;7.00;7.00;;;;;;;;5131662;27;45863;-72
2023/08/30 01:42:36;;;;;;;;;8.33;7.00;;;;;;;;5131022;27;45807;-71
2023/08/30 01:45:03;;;;;;;;;6.00;5.00;;;;;;;;5126681;27;45548;-71
2023/08/30 01:47:29;;;;;;;;;5.00;5.00;;;;;;;;5132890;27;45450;-70
2023/08/30 01:49:55;;;;;;;;;8.33;5.33;;;;;;;;5125372;27;45736;-73
2023/08/30 01:52:22;;;;;;;;;6.00;4.00;;;;;;;;5122943;27;45780;-71
2023/08/30 01:54:47;;;;;;;;;6.67;6.00;;;;;;;;5114788;27;45723;-70
2023/08/30 01:57:13;;;;;;;;;5.00;4.00;;;;;;;;5126822;27;45456;-71
2023/08/30 01:59:38;;;;;;;;;7.00;6.00;;;;;;;;5117792;27;46271;-71
2023/08/30 02:02:04;;;;;;;;;6.33;5.00;;;;;;;;5128703;27;45422;-70
2023/08/30 02:04:29;;;;;;;;;6.00;4.00;;;;;;;;5129551;27;45508;-70
2023/08/30 02:07:00;;;;;;;;;9.33;6.00;;;;;;;;5111494;27;45783;-71
2023/08/30 02:09:33;;;;;;;;;6.00;6.00;;;;;;;;5112521;27;48669;-71
2023/08/30 02:12:00;;;;;;;;;4.00;4.00;;;;;;;;5137446;27;45320;-70
2023/08/30 02:14:26;;;;;;;;;5.33;4.00;;;;;;;;5131954;27;45328;-71
2023/08/30 02:16:52;;;;;;;;;4.67;4.67;;;;;;;;5118621;27;45750;-70
2023/08/30 02:19:20;;;;;;;;;4.67;4.67;;;;;;;;5134777;27;46248;-72
2023/08/30 02:21:46;;;;;;;;;5.25;4.00;;;;;;;;5119306;27;45735;-71
2023/08/30 02:24:11;;;;;;;;;5.00;5.00;;;;;;;;5131083;27;45387;-71
2023/08/30 02:26:37;;;;;;;;;5.00;3.67;;;;;;;;5131365;27;46122;-71
2023/08/30 02:29:02;;;;;;;;;3.00;3.00;;;;;;;;5131371;27;45449;-71
2023/08/30 02:31:28;;;;;;;;;3.75;3.25;;;;;;;;5122664;27;45472;-70
2023/08/30 02:33:54;;;;;;;;;3.00;3.00;;;;;;;;5107981;27;45974;-71
2023/08/30 02:36:19;;;;;;;;;3.00;3.00;;;;;;;;5123924;27;45676;-70
2023/08/30 02:38:44;;;;;;;;;2.00;2.00;;;;;;;;5133219;27;45646;-70
2023/08/30 02:41:10;;;;;;;;;3.25;3.00;;;;;;;;5110998;27;45387;-71
2023/08/30 02:43:35;;;;;;;;;4.00;2.00;;;;;;;;5134560;27;45438;-72
2023/08/30 02:46:01;;;;;;;;;4.50;2.75;;;;;;;;5132152;27;45337;-72
2023/08/30 02:48:26;;;;;;;;;3.25;3.25;;;;;;;;5135770;27;46078;-69
2023/08/30 02:50:52;;;;;;;;;6.00;2.25;;;;;;;;5115554;27;45695;-70
2023/08/30 02:53:17;;;;;;;;;6.00;3.00;;;;;;;;5136041;27;45345;-70
2023/08/30 02:55:42;;;;;;;;;4.25;3.25;;;;;;;;5126854;27;45340;-71
2023/08/30 02:58:07;;;;;;;;;3.00;3.00;;;;;;;;5121424;27;45798;-69
2023/08/30 03:00:34;;;;;;;;;3.50;3.50;;;;;;;;5113585;27;45530;-71
2023/08/30 03:02:59;;;;;;;;;4.75;3.00;;;;;;;;5129778;27;45388;-70
2023/08/30 03:05:25;;;;;;;;;3.00;3.00;;;;;;;;5127801;27;45346;-70
2023/08/30 03:07:51;;;;;;;;;5.00;3.25;;;;;;;;5111523;27;45945;-70
2023/08/30 03:10:16;;;;;;;;;2.50;1.25;;;;;;;;5116131;27;46043;-71
2023/08/30 03:12:41;;;;;;;;;2.75;1.00;;;;;;;;5116818;27;45693;-71
2023/08/30 03:15:07;;;;;;;;;4.00;3.00;;;;;;;;5110635;27;46764;-71
2023/08/30 03:17:32;;;;;;;;;4.50;2.75;;;;;;;;5135338;27;47120;-71
2023/08/30 03:19:58;;;;;;;;;4.25;4.25;;;;;;;;5135312;27;45684;-70
2023/08/30 03:22:23;;;;;;;;;4.50;3.50;;;;;;;;5133886;27;45524;-71
2023/08/30 03:24:49;;;;;;;;;5.25;2.25;;;;;;;;5132827;27;45443;-72
2023/08/30 03:27:14;;;;;;;;;5.25;3.00;;;;;;;;5126083;27;46882;-70
2023/08/30 03:29:40;;;;;;;;;2.25;2.25;;;;;;;;5121938;27;45800;-70
2023/08/30 03:32:05;;;;;;;;;4.00;3.00;;;;;;;;5126911;27;45407;-70
2023/08/30 03:34:30;;;;;;;;;7.50;3.00;;;;;;;;5134347;27;45720;-71
2023/08/30 03:36:55;;;;;;;;;2.00;1.00;;;;;;;;5126778;27;46227;-71
2023/08/30 03:39:21;;;;;;;;;4.00;2.25;;;;;;;;5131214;27;45756;-70
2023/08/30 03:41:46;;;;;;;;;4.00;2.75;;;;;;;;5131707;27;45397;-70
2023/08/30 03:44:12;;;;;;;;;2.25;2.25;;;;;;;;5126463;27;45613;-70
2023/08/30 03:46:37;;;;;;;;;3.00;3.00;;;;;;;;5128562;27;45510;-71
2023/08/30 03:49:03;;;;;;;;;1.00;1.00;;;;;;;;5135467;27;45410;-67
2023/08/30 03:51:28;;;;;;;;;3.75;3.75;;;;;;;;5127583;27;45482;-70
2023/08/30 03:53:56;;;;;;;;;3.33;3.33;;;;;;;;5124354;27;45351;-68
2023/08/30 03:56:21;;;;;;;;;4.67;3.00;;;;;;;;5116575;27;45869;-69
2023/08/30 03:58:46;;;;;;;;;3.00;3.00;;;;;;;;5134216;27;45300;-70
2023/08/30 04:01:11;;;;;;;;;2.50;2.50;;;;;;;;5124443;27;45447;-71
2023/08/30 04:03:36;;;;;;;;;3.00;3.00;;;;;;;;5134915;27;45730;-70
2023/08/30 04:06:02;;;;;;;;;4.00;4.00;;;;;;;;5117875;27;45626;-71
2023/08/30 04:08:27;;;;;;;;;3.75;3.75;;;;;;;;5095358;27;45674;-70
2023/08/30 04:10:53;;;;;;;;;3.67;3.00;;;;;;;;5122541;27;45404;-70
2023/08/30 04:13:18;;;;;;;;;3.25;3.00;;;;;;;;5134792;27;45592;-70
2023/08/30 04:15:43;;;;;;;;;4.25;4.00;;;;;;;;5134174;27;45840;-71
2023/08/30 04:18:08;;;;;;;;;5.00;3.75;;;;;;;;5132621;27;45427;-70
2023/08/30 04:20:34;;;;;;;;;4.00;3.00;;;;;;;;5122054;27;45489;-70
2023/08/30 04:23:01;;;;;;;;;4.50;3.50;;;;;;;;5134796;27;45758;-71
2023/08/30 04:25:27;;;;;;;;;4.67;3.33;;;;;;;;5134490;27;46050;-71
2023/08/30 04:27:52;;;;;;;;;2.33;2.33;;;;;;;;5119555;27;45410;-70
2023/08/30 04:30:18;;;;;;;;;2.00;2.00;;;;;;;;5129095;27;45417;-70
2023/08/30 04:32:43;;;;;;;;;3.00;3.00;;;;;;;;5120183;27;45491;-71
2023/08/30 04:35:08;;;;;;;;;4.67;3.33;;;;;;;;5096107;27;47994;-70
2023/08/30 04:37:34;;;;;;;;;2.33;2.33;;;;;;;;5127492;27;45548;-71
2023/08/30 04:39:59;;;;;;;;;4.00;3.00;;;;;;;;5128089;27;45350;-70
2023/08/30 04:42:24;;;;;;;;;4.00;3.00;;;;;;;;5130273;27;45490;-70
2023/08/30 04:44:50;;;;;;;;;3.00;3.00;;;;;;;;5116298;27;48295;-70
2023/08/30 04:47:15;;;;;;;;;6.75;4.00;;;;;;;;5124190;27;45537;-71
2023/08/30 04:49:41;;;;;;;;;4.75;4.00;;;;;;;;5133155;27;45619;-70
2023/08/30 04:52:06;;;;;;;;;5.00;4.00;;;;;;;;5129216;27;45810;-70
2023/08/30 04:54:31;;;;;;;;;4.00;2.67;;;;;;;;5115632;27;47098;-69
2023/08/30 04:56:56;;;;;;;;;3.00;3.00;;;;;;;;5130115;27;45572;-71
2023/08/30 04:59:22;;;;;;;;;5.00;4.00;;;;;;;;5133034;27;45596;-71
2023/08/30 05:01:47;;;;;;;;;5.00;4.00;;;;;;;;5134356;27;45417;-70
2023/08/30 05:04:12;;;;;;;;;3.00;3.00;;;;;;;;5134264;27;45705;-70
2023/08/30 05:06:37;;;;;;;;;4.33;3.33;;;;;;;;5120765;27;45402;-70
2023/08/30 05:09:03;;;;;;;;;3.00;3.00;;;;;;;;5116983;27;45479;-70
2023/08/30 05:11:28;;;;;;;;;2.75;2.75;;;;;;;;5114019;27;45413;-69
2023/08/30 05:13:57;;;;;;;;;2.00;2.00;;;;;;;;5119605;27;45448;-71
2023/08/30 05:16:22;;;;;;;;;3.33;3.33;;;;;;;;5123469;27;45358;-71
2023/08/30 05:18:47;;;;;;;;;3.67;3.00;;;;;;;;5117494;27;45849;-71
2023/08/30 05:21:13;;;;;;;;;6.00;4.33;;;;;;;;5128201;27;45523;-68
2023/08/30 05:23:41;;;;;;;;;4.00;4.00;;;;;;;;5117692;27;45686;-68
2023/08/30 05:26:06;;;;;;;;;4.00;4.00;;;;;;;;5102481;27;45768;-67
2023/08/30 05:28:32;;;;;;;;;3.00;2.00;;;;;;;;5121120;27;45786;-68
2023/08/30 05:30:57;;;;;;;;;4.00;3.25;;;;;;;;5133916;27;45900;-68
2023/08/30 05:33:22;;;;;;;;;5.33;3.67;;;;;;;;5128132;27;45798;-68
2023/08/30 05:35:47;;;;;;;;;3.75;3.75;;;;;;;;5132840;27;45363;-68
2023/08/30 05:38:13;;;;;;;;;3.75;2.25;;;;;;;;5108553;27;45815;-67
2023/08/30 05:40:42;;;;;;;;;5.00;3.75;;;;;;;;5126342;27;45646;-67
2023/08/30 05:43:07;;;;;;;;;4.50;4.00;;;;;;;;5116396;27;47099;-67
2023/08/30 05:45:33;;;;;;;;;7.50;4.50;;;;;;;;5136606;27;45593;-66
2023/08/30 05:47:58;;;;;;;;;6.75;4.50;;;;;;;;5104688;27;45348;-67
2023/08/30 05:50:23;;;;;;;;;5.00;4.00;;;;;;;;5135013;27;45489;-71
2023/08/30 05:52:48;;;;;;;;;4.00;4.00;;;;;;;;5129675;27;45469;-67
2023/08/30 05:55:14;;;;;;;;;4.75;3.25;;;;;;;;5128360;27;45604;-67
2023/08/30 05:57:39;;;;;;;;;4.00;4.00;;;;;;;;5136320;27;45436;-66
2023/08/30 06:00:05;;;;;;;;;4.00;4.00;;;;;;;;5130446;27;45253;-68
2023/08/30 06:02:30;;;;;;;;;5.50;4.00;;;;;;;;5124090;27;47187;-67
2023/08/30 06:04:55;;;;;;;;;4.50;3.75;;;;;;;;5123846;27;45667;-66
2023/08/30 06:07:20;;;;;;;;;4.00;4.00;;;;;;;;5120108;27;45439;-67
2023/08/30 06:09:46;;;;;;;;;4.00;4.00;;;;;;;;5124400;27;45410;-67
2023/08/30 06:12:11;;;;;;;;;3.00;3.00;;;;;;;;5126619;27;46255;-66
2023/08/30 06:14:36;;;;;;;;;8.00;5.50;;;;;;;;5121557;27;45434;-66
2023/08/30 06:17:02;;;;;;;;;4.75;4.00;;;;;;;;5127033;27;45692;-66
2023/08/30 06:19:27;;;;;;;;;5.25;4.00;;;;;;;;5114096;27;45752;-67
2023/08/30 06:21:52;;;;;;;;;3.50;3.50;;;;;;;;5127376;27;45445;-70
2023/08/30 06:24:17;;;;;;;;;3.00;3.00;;;;;;;;5098761;27;45357;-71
2023/08/30 06:26:43;;;;;;;;;6.50;4.50;;;;;;;;5117344;27;45662;-69
2023/08/30 06:29:08;;;;;;;;;4.50;4.50;;;;;;;;5130632;27;45487;-67
2023/08/30 06:31:33;;;;;;;;;4.50;4.50;;;;;;;;5134171;27;46280;-66
2023/08/30 06:33:58;;;;;;;;;3.25;3.00;;;;;;;;5126715;27;45406;-65
2023/08/30 06:36:24;;;;;;;;;5.00;3.25;;;;;;;;5118613;27;45703;-70
2023/08/30 06:38:49;;;;;;;;;4.00;3.25;;;;;;;;5126790;27;45591;-66
2023/08/30 06:41:14;;;;;;;;;3.75;3.75;;;;;;;;5106058;27;47345;-66
2023/08/30 06:43:40;;;;;;;;;5.00;5.00;;;;;;;;5131014;27;45665;-66
2023/08/30 06:46:05;;;;;;;;;3.25;2.25;;;;;;;;5116730;27;45756;-64
2023/08/30 06:48:30;;;;;;;;;4.00;3.25;;;;;;;;5107201;27;45780;-66
2023/08/30 06:50:58;;;;;;;;;2.50;2.00;;;;;;;;5124611;27;45711;-67
2023/08/30 06:53:24;;;;;;;;;4.00;3.00;;;;;;;;5102387;27;45518;-67
2023/08/30 06:55:58;;;;;;;;;3.50;3.50;;;;;;;;5123617;27;45440;-67
2023/08/30 06:58:24;;;;;;;;;6.00;6.00;;;;;;;;5120283;27;45491;-67
2023/08/30 07:00:52;;;;;;;;;6.00;4.25;;;;;;;;5119650;27;46056;-68
2023/08/30 07:03:18;;;;;;;;;2.75;2.75;;;;;;;;5109495;27;45378;-67
2023/08/30 07:05:43;;;;;;;;;1.00;1.00;;;;;;;;5098075;27;46424;-68
2023/08/30 07:08:09;;;;;;;;;2.50;2.00;;;;;;;;5120689;27;45926;-66
2023/08/30 07:10:34;;;;;;;;;2.75;2.00;;;;;;;;5120584;27;45937;-67
2023/08/30 07:13:00;;;;;;;;;7.00;4.75;;;;;;;;5102205;27;46023;-66
2023/08/30 07:15:25;;;;;;;;;5.00;3.00;;;;;;;;5129678;27;45773;-65
2023/08/30 07:17:51;;;;;;;;;4.00;2.50;;;;;;;;5126028;27;45650;-70
2023/08/30 07:20:16;;;;;;;;;3.25;2.00;;;;;;;;5121660;27;46179;-67
2023/08/30 07:22:41;;;;;;;;;3.00;3.00;;;;;;;;5110875;27;45476;-67
2023/08/30 07:25:08;;;;;;;;;3.50;2.25;;;;;;;;5126053;27;45935;-66
2023/08/30 07:27:33;;;;;;;;;2.25;2.25;;;;;;;;5123150;27;45582;-69
2023/08/30 07:29:59;;;;;;;;;1.75;1.75;;;;;;;;5123584;27;45895;-66
2023/08/30 07:32:24;;;;;;;;;2.75;2.75;;;;;;;;5115801;27;45798;-68
2023/08/30 07:34:49;;;;;;;;;3.00;3.00;;;;;;;;5098683;27;46025;-70
2023/08/30 07:37:19;;;;;;;;;3.50;1.00;;;;;;;;5116816;27;45960;-68
2023/08/30 07:39:44;;;;;;;;;3.75;3.00;;;;;;;;5117543;27;46861;-67
2023/08/30 07:42:09;;;;;;;;;4.50;1.75;;;;;;;;5110504;27;45555;-67
2023/08/30 07:44:35;;;;;;;;;2.25;1.00;;;;;;;;5110719;27;46753;-66
2023/08/30 07:47:00;;;;;;;;;3.00;2.00;;;;;;;;5129961;27;45760;-66
2023/08/30 07:49:25;;;;;;;;;2.00;2.00;;;;;;;;5127591;27;46109;-67
2023/08/30 07:51:50;;;;;;;;;4.00;2.50;;;;;;;;5104759;27;45509;-70
2023/08/30 07:54:16;;;;;;;;;5.00;3.00;;;;;;;;5133611;27;45778;-68
2023/08/30 07:56:41;;;;;;;;;4.75;3.00;;;;;;;;5124042;27;45723;-68
2023/08/30 07:59:06;;;;;;;;;4.75;1.75;;;;;;;;5130060;27;45881;-69
2023/08/30 08:01:31;;;;;;;;;5.00;2.75;;;;;;;;5131987;27;45498;-67
2023/08/30 08:03:57;;;;;;;;;3.50;3.50;;;;;;;;5127019;27;45462;-67
2023/08/30 08:06:22;;;;;;;;;3.75;2.75;;;;;;;;5132768;27;45741;-69
2023/08/30 08:08:47;;;;;;;;;2.25;2.25;;;;;;;;5133644;27;46238;-67
2023/08/30 08:11:12;;;;;;;;;6.00;3.00;;;;;;;;5133055;27;45560;-68
2023/08/30 08:13:38;;;;;;;;;2.50;2.00;;;;;;;;5113743;27;45454;-66
2023/08/30 08:16:03;;;;;;;;;2.75;2.25;;;;;;;;5130365;27;45442;-66
2023/08/30 08:18:28;;;;;;;;;4.00;2.00;;;;;;;;5133882;27;46102;-67
2023/08/30 08:20:54;;;;;;;;;5.00;2.75;;;;;;;;5133765;27;45627;-66
2023/08/30 08:23:19;;;;;;;;;5.50;2.75;;;;;;;;5134688;27;45394;-67
2023/08/30 08:25:44;;;;;;;;;2.00;2.00;;;;;;;;5112054;27;45626;-67
2023/08/30 08:28:09;;;;;;;;;2.75;2.75;;;;;;;;5121532;27;45527;-67
2023/08/30 08:30:35;;;;;;;;;2.00;2.00;;;;;;;;5126618;27;45712;-66
2023/08/30 08:33:01;;;;;;;;;4.50;3.50;;;;;;;;5111793;27;45382;-69
2023/08/30 08:35:26;;;;;;;;;5.00;3.50;;;;;;;;5131217;27;45571;-67
2023/08/30 08:37:54;;;;;;;;;3.75;2.50;;;;;;;;5133207;27;45327;-67
2023/08/30 08:40:19;;;;;;;;;4.75;3.00;;;;;;;;5133586;27;45557;-67
2023/08/30 08:42:45;;;;;;;;;2.25;2.25;;;;;;;;5119105;27;45643;-66
2023/08/30 08:45:12;;;;;;;;;4.00;3.00;;;;;;;;5120545;27;45621;-66
2023/08/30 08:47:38;;;;;;;;;1.00;1.00;;;;;;;;5132953;27;46414;-68
2023/08/30 08:50:03;;;;;;;;;2.50;1.25;;;;;;;;5133698;27;45582;-68
2023/08/30 08:52:29;;;;;;;;;2.00;2.00;;;;;;;;5133408;27;45524;-66
2023/08/30 08:54:55;;;;;;;;;2.50;2.00;;;;;;;;5112811;27;47120;-68
2023/08/30 08:57:20;;;;;;;;;1.75;1.75;;;;;;;;5131978;27;46719;-65
2023/08/30 08:59:45;;;;;;;;;2.00;1.00;;;;;;;;5105990;27;46630;-68
2023/08/30 09:02:14;;;;;;;;;1.75;1.75;;;;;;;;5102981;27;45700;-67
2023/08/30 09:04:40;;;;;;;;;4.50;3.00;;;;;;;;5126307;27;45323;-66
2023/08/30 09:07:05;;;;;;;;;2.25;2.25;;;;;;;;5123274;27;45409;-67
2023/08/30 09:09:30;;;;;;;;;2.00;0.75;;;;;;;;5124986;27;45888;-66
2023/08/30 09:11:56;;;;;;;;;3.75;2.50;;;;;;;;5130305;27;45473;-63
2023/08/30 09:14:21;;;;;;;;;1.00;1.00;;;;;;;;5129692;27;45657;-66
2023/08/30 09:16:55;;;;;;;;;1.25;1.25;;;;;;;;5132821;27;45575;-66
2023/08/30 09:19:21;;;;;;;;;2.00;2.00;;;;;;;;5131261;27;45814;-66
2023/08/30 09:21:51;;;;;;;;;2.00;2.00;;;;;;;;5100632;27;45452;-66
2023/08/30 09:24:16;;;;;;;;;3.25;2.00;;;;;;;;5130617;27;45739;-65
2023/08/30 09:26:46;;;;;;;;;2.00;2.00;;;;;;;;5125598;27;45346;-65
2023/08/30 09:29:12;;;;;;;;;4.00;0.80;;;;;;;;5103903;27;45419;-67
2023/08/30 09:31:39;;;;;;;;;1.00;1.00;;;;;;;;5118088;27;45332;-67
2023/08/30 09:34:05;;;;;;;;;1.00;1.00;;;;;;;;5125964;27;45569;-67
2023/08/30 09:36:34;;;;;;;;;1.00;1.00;;;;;;;;5107665;27;47834;-65
2023/08/30 09:38:59;;;;;;;;;1.60;1.60;;;;;;;;5114818;27;45510;-67
2023/08/30 09:41:24;;;;;;;;;1.00;1.00;;;;;;;;5124383;27;46090;-68
2023/08/30 09:43:50;;;;;;;;;2.25;2.25;;;;;;;;5131353;27;45540;-66
2023/08/30 09:46:15;;;;;;;;;3.00;1.75;;;;;;;;5128951;27;45470;-68
2023/08/30 09:48:41;;;;;;;;;3.00;1.75;;;;;;;;5117099;27;45937;-67
2023/08/30 09:51:07;;;;;;;;;3.75;2.50;;;;;;;;5122425;27;45754;-68
2023/08/30 09:53:37;;;;;;;;;2.50;2.00;;;;;;;;5122072;27;45931;-67
2023/08/30 09:56:03;;;;;;;;;2.80;1.20;;;;;;;;5108432;27;48021;-67
2023/08/30 09:58:29;;;;;;;;;1.00;1.00;;;;;;;;5124712;27;46686;-67
2023/08/30 10:00:55;;;;;;;;;2.25;1.25;;;;;;;;5119107;27;45417;-67
2023/08/30 10:03:21;;;;;;;;;3.50;2.50;;;;;;;;5118233;27;45704;-67
2023/08/30 10:05:46;;;;;;;;;1.00;1.00;;;;;;;;5123774;27;45684;-67
2023/08/30 10:08:13;;;;;;;;;4.00;2.00;;;;;;;;5105538;27;45860;-67
2023/08/30 10:10:39;;;;;;;;;10.00;8.25;;;;;;;;5125440;27;45777;-65
2023/08/30 10:13:05;;;;;;;;;2.50;2.00;;;;;;;;5111000;27;45595;-68
2023/08/30 10:15:33;;;;;;;;;4.00;1.00;;;;;;;;5121624;27;45700;-67
2023/08/30 10:17:58;;;;;;;;;12.25;10.75;;;;;;;;5126025;27;45780;-68
2023/08/30 10:20:24;;;;;;;;;3.00;3.00;;;;;;;;5102465;27;46413;-67
2023/08/30 10:22:51;;;;;;;;;6.50;5.25;;;;;;;;5124139;27;45506;-67
2023/08/30 10:25:19;;;;;;;;;8.75;8.50;;;;;;;;5127019;27;46742;-67
2023/08/30 10:55:10;;;;;;;;;1.75;1.75;;;;;;;;5070809;27;45801;-69
2023/08/30 10:57:42;;;;;;;;;1.75;1.75;;;;;;;;5064254;27;45622;-69
2023/08/30 11:00:22;;;;;;;;;4.00;2.25;;;;;;;;5064504;27;45812;-68
2023/08/30 11:03:20;;;;;;;;;1.00;1.00;;;;;;;;5077602;27;45455;-69
2023/08/30 11:05:52;;;;;;;;;2.25;2.25;;;;;;;;5040561;27;45616;-71
2023/08/30 11:08:27;;;;;;;;;2.00;2.00;;;;;;;;5073043;28;46497;-68
2023/08/30 11:11:31;;;;;;;;;4.25;2.00;;;;;;;;5065157;28;45851;-70
2023/08/30 11:14:34;;;;;;;;;1.60;1.20;;;;;;;;5068602;28;45946;-69
2023/08/30 11:17:00;;;;;;;;;1.50;1.50;;;;;;;;5065150;28;45852;-74
2023/08/30 11:19:40;;;;;;;;;3.25;2.00;;;;;;;;5071663;27;45641;-69
2023/08/30 11:22:05;;;;;;;;;4.00;1.50;;;;;;;;5062360;28;45830;-69
2023/08/30 11:24:33;;;;;;;;;1.75;1.75;;;;;;;;5064877;27;46589;-71
2023/08/30 11:26:58;;;;;;;;;5.25;2.00;;;;;;;;5073490;27;45732;-68
2023/08/30 11:29:26;;;;;;;;;7.50;4.75;;;;;;;;5070522;27;46000;-70
2023/08/30 11:31:51;;;;;;;;;6.00;3.25;;;;;;;;5062047;27;46348;-69
2023/08/30 11:34:19;;;;;;;;;6.25;2.25;;;;;;;;5069763;27;45502;-68
2023/08/30 11:36:46;;;;;;;;;1.25;1.25;;;;;;;;5071509;27;45479;-74
2023/08/30 11:39:13;;;;;;;;;3.25;2.50;;;;;;;;5074247;27;45575;-77
2023/08/30 11:41:39;;;;;;;;;2.00;1.75;;;;;;;;5073311;27;45851;-73
2023/08/30 11:44:07;;;;;;;;;4.00;3.00;;;;;;;;5073961;27;45777;-73
2023/08/30 11:46:33;;;;;;;;;3.50;2.00;;;;;;;;5068704;27;45502;-73
2023/08/30 11:48:58;;;;;;;;;4.00;2.75;;;;;;;;5070382;27;45526;-72
2023/08/30 11:51:23;;;;;;;;;2.50;2.50;;;;;;;;5070573;27;46848;-66
2023/08/30 11:53:49;;;;;;;;;2.75;2.25;;;;;;;;5070702;27;45776;-69
2023/08/30 11:56:15;;;;;;;;;5.00;2.25;;;;;;;;5065876;28;45473;-72
2023/08/30 11:58:43;;;;;;;;;4.00;2.00;;;;;;;;5068299;28;45850;-74
2023/08/30 12:01:14;;;;;;;;;6.75;2.50;;;;;;;;5064874;28;47335;-75
2023/08/30 12:03:40;;;;;;;;;3.00;3.00;;;;;;;;5071999;27;45788;-72
2023/08/30 12:06:48;;;;;;;;;3.00;3.00;;;;;;;;5068688;27;45482;-72
2023/08/30 12:09:17;;;;;;;;;4.25;3.00;;;;;;;;5063784;28;45902;-71
2023/08/30 12:11:51;;;;;;;;;3.25;3.25;;;;;;;;5075609;27;45569;-71
2023/08/30 12:17:58;;;;;;;;;;;;;;;;;;;;;
2023/08/30 12:20:56;;;;;;;;;8.75;6.00;;;;;;;;4967306;28;74451;-71
2023/08/30 12:23:29;;;;;;;;;4.50;4.25;;;;;;;;5066759;28;46862;-71
2023/08/30 12:26:04;;;;;;;;;6.00;4.75;;;;;;;;5070101;27;45743;-70
2023/08/30 12:28:47;;;;;;;;;5.00;4.00;;;;;;;;5081678;27;45470;-69
2023/08/30 12:31:16;;;;;;;;;7.00;4.00;;;;;;;;5070075;28;45588;-72
2023/08/30 12:33:41;;;;;;;;;4.00;3.25;;;;;;;;5068558;27;47043;-72
2023/08/30 12:36:12;;;;;;;;;6.25;2.00;;;;;;;;5068388;27;45600;-72
2023/08/30 12:38:56;;;;;;;;;8.25;5.75;;;;;;;;5067792;27;45768;-72
2023/08/30 12:41:45;;;;;;;;;;;;;;;;;;;;;
2023/08/30 12:50:28;;;;;;;;;;;;;;;;;;;;;
2023/08/30 12:52:57;;;;;;;;;7.75;4.50;;;;;;;;5009047;28;74201;-71
2023/08/30 12:55:34;;;;;;;;;5.25;4.00;;;;;;;;5012245;28;45994;-71
2023/08/30 13:05:00;;;;;;;;;4.00;4.00;;;;;;;;4931989;28;45517;-73
2023/08/30 13:07:39;;;;;;;;;;;;;;;;;;;;;
2023/08/30 13:13:39;;;;;;;;;5.00;4.25;;;;;;;;4918639;28;45792;-75
2023/08/30 13:16:04;;;;;;;;;3.00;3.00;;;;;;;;4894239;28;45471;-74
2023/08/30 13:18:36;;;;;;;;;4.25;2.25;;;;;;;;4956418;28;47542;-74
2023/08/30 13:21:12;;;;;;;;;10.50;7.75;;;;;;;;5060809;27;45493;-74
2023/08/30 13:24:06;;;;;;;;;9.50;8.25;;;;;;;;5074923;27;45551;-70
2023/08/30 13:26:32;;;;;;;;;8.50;7.25;;;;;;;;5066626;27;45794;-73
2023/08/30 13:32:35;;;;;;;;;3.00;3.00;;;;;;;;5069164;28;45428;-74
2023/08/30 13:35:07;;;;;;;;;3.75;3.75;;;;;;;;5068281;28;45835;-69
2023/08/30 13:37:59;;;;;;;;;4.00;2.75;;;;;;;;5069598;28;44787;-74
2023/08/30 13:41:43;;;;;;;;;;;;;;;;;;;;;
2023/08/30 13:43:51;;;;;;;;;3.50;3.50;;;;;;;;5035349;28;45581;-70
2023/08/30 13:46:19;;;;;;;;;4.25;3.75;;;;;;;;5049721;28;45800;-74
2023/08/30 13:48:45;;;;;;;;;2.00;2.00;;;;;;;;5043575;28;45409;-74
2023/08/30 13:51:10;;;;;;;;;2.00;2.00;;;;;;;;5034953;28;45817;-73
2023/08/30 13:53:35;;;;;;;;;2.50;2.00;;;;;;;;5039848;28;45680;-69
2023/08/30 13:56:22;;;;;;;;;;;;;;;;;;;;;
2023/08/30 13:59:39;;;;;;;;;5.75;4.75;;;;;;;;5023227;28;72248;-70
2023/08/30 14:08:37;;;;;;;;;3.00;1.75;;;;;;;;5015173;28;45813;-72
2023/08/30 14:11:19;;;;;;;;;;;;;;;;;;;;;
2023/08/30 14:14:08;;;;;;;;;5.50;2.00;;;;;;;;4995017;28;74810;-73
2023/08/30 14:22:55;;;;;;;;;2.50;2.50;;;;;;;;4913066;28;45752;-71
2023/08/30 14:26:16;;;;;;;;;3.00;2.00;;;;;;;;4930826;28;46833;-70
2023/08/30 14:28:41;;;;;;;;;3.25;3.25;;;;;;;;4935024;28;45480;-71
2023/08/30 14:34:39;;;;;;;;;3.00;3.00;;;;;;;;4914596;28;45544;-72
2023/08/30 14:37:05;;;;;;;;;3.75;3.00;;;;;;;;4921207;28;46025;-72
2023/08/30 14:39:45;;;;;;;;;4.75;2.00;;;;;;;;4979194;28;45481;-72
2023/08/30 14:46:04;;;;;;;;;;;;;;;;;;;;;
2023/08/30 14:49:02;;;;;;;;;7.75;2.75;;;;;;;;4971917;28;74912;-69
2023/08/30 15:01:24;;;;;;;;;3.75;3.75;;;;;;;;5023034;28;45983;-70
2023/08/30 15:04:30;;;;;;;;;2.00;2.00;;;;;;;;5049159;28;45627;-71
2023/08/30 15:07:02;;;;;;;;;2.00;2.00;;;;;;;;4968936;28;46155;-70
2023/08/30 15:09:53;;;;;;;;;3.75;3.00;;;;;;;;4970102;28;46175;-70
2023/08/30 15:12:19;;;;;;;;;4.00;3.00;;;;;;;;5042599;28;45718;-70
2023/08/30 15:14:44;;;;;;;;;4.00;2.25;;;;;;;;5060674;27;45286;-70
2023/08/30 15:23:37;;;;;;;;;3.00;3.00;;;;;;;;5061411;28;45470;-71
2023/08/30 15:26:16;;;;;;;;;5.00;3.50;;;;;;;;5092961;27;45410;-73
2023/08/30 15:28:44;;;;;;;;;1.00;1.00;;;;;;;;5073319;28;45701;-71
2023/08/30 15:37:59;;;;;;;;;4.00;4.00;;;;;;;;4987445;28;45477;-71
2023/08/30 15:44:11;;;;;;;;;3.50;3.00;;;;;;;;4879948;28;45431;-73
2023/08/30 15:53:09;;;;;;;;;3.25;3.25;;;;;;;;4953885;28;45487;-70
2023/08/30 16:02:29;;;;;;;;;3.50;3.50;;;;;;;;4962876;28;45426;-70
2023/08/30 16:08:17;;;;;;;;;5.75;4.50;;;;;;;;4958551;28;45957;-70
2023/08/30 16:14:06;;;;;;;;;2.00;2.00;;;;;;;;4983679;28;45866;-71
2023/08/30 16:16:43;;;;;;;;;3.00;3.00;;;;;;;;5030319;28;45456;-67
2023/08/30 16:28:42;;;;;;;;;4.50;4.00;;;;;;;;5023314;28;45828;-70
2023/08/30 16:32:22;;;;;;;;;3.00;3.00;;;;;;;;5026327;28;46061;-70
2023/08/30 16:34:44;;;;;;;;;5.00;3.00;;;;;;;;5025280;28;45670;-70
2023/08/30 16:40:16;;;;;;;;;3.50;1.50;;;;;;;;5017335;28;45733;-72
2023/08/30 16:42:58;;;;;;;;;4.00;2.00;;;;;;;;5040944;28;45820;-69
2023/08/30 16:45:24;;;;;;;;;1.75;1.75;;;;;;;;5032903;28;45603;-70
2023/08/30 16:48:05;;;;;;;;;;;;;;;;;;;;;
2023/08/30 16:53:57;;;;;;;;;5.75;4.00;;;;;;;;4988433;28;45553;-71
2023/08/30 16:57:04;;;;;;;;;;;;;;;;;;;;;
2023/08/30 16:59:30;;;;;;;;;2.25;2.25;;;;;;;;5011688;28;72167;-70
2023/08/30 17:01:58;;;;;;;;;9.00;8.33;;;;;;;;5063385;27;45656;-68
2023/08/30 17:04:36;;;;;;;;;4.00;3.25;;;;;;;;5066678;28;45605;-69
2023/08/30 17:07:24;;;;;;;;;3.00;3.00;;;;;;;;5069691;28;45712;-69
2023/08/30 17:10:10;;;;;;;;;3.75;2.75;;;;;;;;5065630;28;45096;-69
2023/08/30 17:12:35;;;;;;;;;4.75;4.75;;;;;;;;5053850;28;44973;-70
2023/08/30 17:15:13;;;;;;;;;6.25;3.75;;;;;;;;5065184;28;45799;-70